Tiempo atmosférico en la estación meteorológica de Madridejos, Toledo (690 m.)



Fecha
DESCASC
Temp. máxima en grados centígrados (hora)
DESCASC
Temp. mínima en grados centígrados (hora)
DESCASC
Temp. media en grados centígrados
DESCASC
Racha de viento máxima en m/sg (hora)
DESCASC
Velocidad máxima media en intervalos de 10 minutos(hora)
DESCASC
Precipitaciones diarias en mm
DESCASC
Precipitaciones de 00:00 a 06:00 en mm
DESCASC
Precipitaciones de 06:00 a 12:00 en mm
DESCASC
Precipitaciones de 12:00 a 18:00 en mm
DESCASC
Precipitaciones de 18:00 a 24:00 en mm
DESCASC
22-04-2019 16.8 (16:50) 7.3 (08:00) 12 10.28 (13:30) 5.56 (20:20) -- -- -- -- --
21-04-2019 12 (15:30) 7 (08:00) 9.5 10.28 (15:10) 6.11 (06:30) -- -- -- -- --
20-04-2019 12.6 (16:00) 7.6 (00:00) 10.1 12.78 (23:00) 8.61 (23:20) -- -- -- -- --
19-04-2019 11.2 (13:20) 7.4 (23:00) 9.3 8.89 (12:40) 6.11 (18:20) -- -- -- -- --
18-04-2019 16.3 (00:10) 8.6 (00:00) 12.4 13.33 (13:10) 9.17 (13:00) -- -- -- -- --
17-04-2019 -- (--) -- (--) -- -- (--) -- (--) -- -- -- -- --
16-04-2019 22.6 (18:50) 5.4 (00:00) 14 11.94 (23:10) 5.28 (23:59) -- -- -- -- --
15-04-2019 25.4 (16:20) 11.2 (00:00) 18.3 -- (--) -- (--) -- -- -- -- --
14-04-2019 23.9 (16:50) 7.2 (00:00) 15.5 9.72 (18:50) 6.11 (19:50) -- -- -- -- --
13-04-2019 21.9 (17:40) 2.6 (00:00) 12.2 9.72 (19:00) 5 (20:20) -- -- -- -- --
12-04-2019 18.5 (18:10) 0.6 (07:10) 9.6 -- (--) -- (--) -- -- -- -- --
11-04-2019 16.6 (18:30) 0.3 (00:00) 8.5 -- (--) -- (--) -- -- -- -- --
10-04-2019 13.3 (13:00) 3.2 (00:00) 8.3 -- (--) -- (--) -- -- -- -- --
09-04-2019 14.6 (18:30) 4.4 (00:00) 9.5 -- (--) -- (--) -- -- -- -- --
08-04-2019 17.1 (16:10) 9.1 (00:00) 13.1 -- (--) -- (--) -- -- -- -- --
07-04-2019 12.8 (14:30) 3.7 (00:00) 8.3 -- (--) -- (--) -- -- -- -- --
06-04-2019 10.6 (14:20) 3.1 (00:00) 6.9 -- (--) -- (--) -- -- -- -- --
05-04-2019 10.2 (00:00) 4.7 (00:00) 7.4 -- (--) -- (--) -- -- -- -- --
04-04-2019 15.7 (18:10) -1.4 (-00:0) 7.1 11.67 (18:20) 5.83 (20:20) -- -- -- -- --
03-04-2019 18.2 (16:50) 6.8 (07:00) 12.5 17.78 (15:20) 8.33 (16:00) -- -- -- -- --
02-04-2019 16.7 (18:50) 6.8 (00:00) 11.8 13.61 (19:10) 7.78 (19:10) -- -- -- -- --
01-04-2019 16.1 (17:40) 8.4 (00:00) 12.3 -- (--) -- (--) -- -- -- -- --
31-03-2019 10.2 (16:20) 6.3 (00:00) 8.3 12.5 (01:00) 8.33 (00:30) -- -- -- -- --
30-03-2019 18.5 (16:50) 2.6 (00:00) 10.5 12.78 (23:20) 8.06 (22:20) -- -- -- -- --
29-03-2019 18.2 (16:10) 2.7 (00:00) 10.5 15.83 (10:20) 8.33 (10:20) -- -- -- -- --
28-03-2019 18 (16:40) -1.1 (-00:0) 8.4 12.22 (13:50) 6.94 (13:40) -- -- -- -- --
27-03-2019 17 (17:20) 1.7 (00:00) 9.4 -- (--) -- (--) -- -- -- -- --
26-03-2019 19.9 (16:00) 1.6 (00:00) 10.7 -- (--) -- (--) -- -- -- -- --
25-03-2019 21.1 (16:10) 0.3 (00:00) 10.7 11.39 (15:00) 4.72 (16:50) -- -- -- -- --

Gráficas

Temp. máximas Temp. mínimas Temp. medias Precipitaciones Rachas de viento máximas Velocidades máximas media en intervalos de 10 minutos

Datos horarios

Fecha y hora oficial Temperatura (ºC) Velocidad del viento (km/h) Dirección del viento Racha (km/h) Dirección de racha Precipitación (mm) Presión (hPa) Tendencia (hPa) Humedad (%)
2019-04-23 23:00:00 5.7 13 Sudoeste 39 Oeste 0.2 924.1 2.8 82
2019-04-23 22:00:00 6.2 27 Oeste 54 Oeste 0 923.5 2.6 78
2019-04-23 21:00:00 7.9 22 Sudoeste 51 Sudoeste 0 922 1.6 66
2019-04-23 20:00:00 9.5 20 Sudoeste 50 Oeste 0 921.3 1.1 61
2019-04-23 19:00:00 10.1 30 Oeste 55 Sudoeste 0 920.9 1.3 62
2019-04-23 18:00:00 9.7 26 Sudoeste 49 Sudoeste 0 920.4 0.7 65
2019-04-23 17:00:00 8.5 36 Oeste 72 Oeste 0 920.2 -0.1 72
2019-04-23 16:00:00 12.5 27 Oeste 48 Sudoeste 0 919.6 -0.5 47
2019-04-23 15:00:00 12 29 Sudoeste 48 Sudoeste 0 919.7 0.2 53
2019-04-23 14:00:00 10.2 23 Sudoeste 40 Sudoeste 0 920.3 1.5 65
2019-04-23 13:00:00 8.9 30 Sudoeste 42 Sudoeste 0 920.1 1.4 72
2019-04-23 12:00:00 10 24 Sudoeste 42 Sudoeste 0 919.5 1.1 74
2019-04-23 11:00:00 8.9 12 Sur 41 Sudoeste 0.2 918.8 0.7 80
2019-04-23 10:00:00 9.2 17 Sudoeste 37 Sur 0.2 918.7 0.4 86
2019-04-23 09:00:00 10.2 19 Sudoeste 39 Sudoeste 0 918.4 -0.1 76
2019-04-23 08:00:00 10.4 20 Sur 39 Sur 0 918.1 -0.7 72
2019-04-23 07:00:00 10.8 22 Sur 39 Sudoeste 0 918.3 -0.7 75
2019-04-23 06:00:00 11.1 18 Sur 34 Sudoeste 0 918.5 -1.2 78
2019-04-23 05:00:00 11.5 14 Sur 36 Sur 0 918.8 -1.4 69
2019-04-23 04:00:00 11.4 4 Sudeste 30 Sudoeste 0 919 -1.1 74
2019-04-23 03:00:00 11.7 10 Sudeste 28 Sudoeste 0 919.7 -0.8 73
2019-04-23 02:00:00 11.4 8 Sur 29 Sudoeste 0 920.2 -0.3 76
2019-04-23 01:00:00 11.9 6 Sudeste 17 Sudeste 0 920.1 -0.2 71
2019-04-23 00:00:00 12.4 6 Sudeste 33 Sudoeste 0 920.5 0.1 70
2019-04-22 23:00:00 12.9 11 Sudeste 26 Sudeste 0 920.5 -0.1 67
2019-04-22 22:00:00 13.7 9 Sur 16 Sudoeste 0 920.3 -0.5 61
2019-04-22 21:00:00 14.2 10 Sudoeste 32 Sudoeste 0 920.4 -0.5 64
2019-04-22 20:00:00 15.4 12 Oeste 22 Oeste 0 920.6 -0.8 56
2019-04-22 19:00:00 16.4 18 Sudoeste 31 Sudoeste 0 920.8 -1.4 50
2019-04-22 18:00:00 16.4 9 Sudoeste 26 Sudoeste 0 920.9 -1.8 49
2019-04-22 17:00:00 16.3 12 Sudoeste 35 Oeste 0 921.4 -2 48
2019-04-22 16:00:00 15.8 12 Noroeste 37 Oeste 0 922.2 -1.9 51
2019-04-22 15:00:00 15 17 Noroeste 35 Oeste 0 922.7 -2 55
2019-04-22 14:00:00 13.9 13 Oeste 37 Oeste 0 923.4 -1.2 59
2019-04-22 13:00:00 13.4 14 Oeste 35 Oeste 0 924.1 -0.6 64
2019-04-22 12:00:00 11.9 10 Noroeste 31 Oeste 0 924.7 0.1 69
2019-04-22 11:00:00 11.1 11 Noroeste 28 Oeste 0 924.6 -0.1 74
2019-04-22 10:00:00 9 9 Noroeste 25 Oeste 0 924.7 0.2 84
2019-04-22 09:00:00 7.7 5 Noroeste 9 Oeste 0 924.6 -0.6 89
2019-04-22 08:00:00 7.3 5 Oeste 10 Oeste 0 924.7 -1.1 89
2019-04-22 07:00:00 7.8 5 Oeste 8 Noroeste 0 924.5 -1.8 89
2019-04-22 06:00:00 7.9 5 Noroeste 9 Noroeste 0 925.2 -1.9 88
2019-04-22 05:00:00 8.1 5 Noroeste 7 Noroeste 0 925.8 -1.7 88
2019-04-22 04:00:00 8.5 5 Sudoeste 18 Este 0 926.3 -1.7 87
2019-04-22 03:00:00 8.6 2 Nordeste 6 Noroeste 0 927.1 -1.4 86
2019-04-22 02:00:00 8.9 3 Noroeste 5 Noroeste 0 927.5 -1.2 84
2019-04-22 01:00:00 9.2 3 Sudoeste 6 Sur 0 928 -0.6 83
2019-04-22 00:00:00 9.5 3 Sur 7 Sur 0 928.5 0 81
2019-04-21 23:00:00 9.8 4 Sur 9 Sudeste 0 928.7 0.2 80
2019-04-21 22:00:00 10.1 5 Sudeste 21 Este 0 928.6 -0.1 78
2019-04-21 21:00:00 10.6 7 Nordeste 23 Nordeste 0 928.5 -0.6 74
2019-04-21 20:00:00 11 15 Nordeste 23 Nordeste 0 928.5 -0.9 70
2019-04-21 19:00:00 11.4 13 Nordeste 30 Nordeste 0 928.7 -1 65
2019-04-21 18:00:00 11.6 15 Nordeste 32 Nordeste 0 929.1 -0.9 66
2019-04-21 17:00:00 11.2 15 Nordeste 34 Norte 0 929.4 -1.1 67
2019-04-21 16:00:00 11.8 16 Nordeste 37 Norte 0 929.7 -1.6 67
2019-04-21 15:00:00 11.6 16 Nordeste 31 Nordeste 0 930 -1.7 60
2019-04-21 14:00:00 11.7 15 Nordeste 32 Nordeste 0 930.5 -1.1 64
2019-04-21 13:00:00 10.2 9 Norte 32 Norte 0 931.3 -0.4 77
2019-04-21 12:00:00 9 9 Nordeste 29 Nordeste 0 931.7 -0.1 75
2019-04-21 11:00:00 8.9 16 Nordeste 29 Nordeste 0 931.6 -0.4 75
2019-04-21 10:00:00 7.6 7 Norte 22 Norte 0 931.7 -0.5 81
2019-04-21 09:00:00 7.2 8 Norte 24 Norte 0 931.8 -0.9 84
2019-04-21 08:00:00 7 12 Norte 24 Nordeste 0 932 -1.3 87
2019-04-21 07:00:00 7.2 12 Nordeste 30 Nordeste 0 932.2 -1.5 87
2019-04-21 06:00:00 7.2 20 Nordeste 28 Norte 0 932.7 -2.1 88
2019-04-21 05:00:00 7.6 8 Norte 25 Norte 0 933.3 -2.3 86
2019-04-21 04:00:00 7.9 18 Nordeste 28 Nordeste 0 933.7 -2.5 81
2019-04-21 03:00:00 8.1 17 Nordeste 29 Nordeste 0 934.8 -1.8 79
2019-04-21 02:00:00 8.5 21 Nordeste 29 Nordeste 0 935.6 -1.1 80
2019-04-21 01:00:00 8.6 6 Norte 29 Nordeste 0 936.2 -0.7 79
2019-04-21 00:00:00 8.6 19 Nordeste 44 Nordeste 0 936.6 -0.1 78
2019-04-20 23:00:00 9.2 30 Nordeste 46 Nordeste 0.8 936.7 0.2 74
2019-04-20 22:00:00 8.7 14 Nordeste 32 Nordeste 2.2 936.9 1 86
2019-04-20 21:00:00 8.7 16 Nordeste 26 Este 2.6 936.7 0.7 88
2019-04-20 20:00:00 8.7 16 Este 31 Sudeste 5.4 936.5 0.8 89
2019-04-20 19:00:00 9.1 21 Este 40 Este 1.6 935.9 0.3 86
2019-04-20 18:00:00 10.1 24 Este 46 Sudeste 1 936 0.7 82
2019-04-20 17:00:00 11.1 19 Este 41 Este 1.6 935.7 0.3 76
2019-04-20 16:00:00 12.5 13 Este 29 Este 0 935.6 0.1 72
2019-04-20 15:00:00 11.9 9 Nordeste 20 Nordeste 0 935.3 0 78
2019-04-20 14:00:00 11.3 6 Norte 17 Noroeste 0 935.4 0.2 76
2019-04-20 13:00:00 10.4 10 Norte 32 Norte 0 935.5 0.5 78
2019-04-20 12:00:00 10.6 12 Norte 34 Norte 0 935.3 0.4 74
2019-04-20 11:00:00 9.7 12 Norte 24 Noroeste 0 935.2 1 79
2019-04-20 10:00:00 9.3 13 Norte 26 Norte 0 935 0.6 82
2019-04-20 09:00:00 9.3 14 Norte 34 Norte 0 934.9 0 80
2019-04-20 08:00:00 8.8 17 Norte 31 Norte 0 934.2 -0.9 82
2019-04-20 07:00:00 8 15 Norte 27 Norte 0 934.4 -1.6 91
2019-04-20 06:00:00 8.1 15 Norte 31 Norte 0 934.9 -2.7 91
2019-04-20 05:00:00 8 19 Noroeste 27 Noroeste 0 935.1 -3.1 89
2019-04-20 04:00:00 7.8 13 Norte 24 Norte 0.4 936 -2.2 91
2019-04-20 03:00:00 7.9 12 Norte 23 Nordeste 1.8 937.6 -0.5 91
2019-04-20 02:00:00 7.8 7 Norte 25 Nordeste 2 938.2 0 92
2019-04-20 01:00:00 7.7 8 Nordeste 24 Nordeste 0.6 938.2 0.3 92
2019-04-20 00:00:00 7.6 9 Nordeste 22 Nordeste 2.4 938.1 0.7 92
2019-04-19 23:00:00 7.5 13 Nordeste 19 Nordeste 2.8 938.2 1.6 92
2019-04-19 22:00:00 7.7 12 Nordeste 22 Este 2 937.9 1.7 91
2019-04-19 21:00:00 7.8 10 Este 22 Este 1.4 937.4 1.5 91
2019-04-19 20:00:00 7.9 12 Este 23 Este 2.6 936.6 1.2 90
2019-04-19 19:00:00 8.2 15 Este 30 Este 1.4 936.2 0.5 89
2019-04-19 18:00:00 8.7 18 Este 30 Nordeste 1.4 935.9 0.3 88
2019-04-19 17:00:00 9.1 15 Este 28 Este 1.8 935.4 -0.1 86
2019-04-19 16:00:00 9.8 10 Nordeste 21 Nordeste 2 935.7 0.6 88
2019-04-19 15:00:00 10 13 Nordeste 29 Este 2 935.6 0.2 86
2019-04-19 14:00:00 11 13 Este 29 Este 0 935.5 0.6 77
2019-04-19 13:00:00 11.1 8 Este 32 Este 0 935.1 0.4 78
2019-04-19 12:00:00 10.4 13 Sudeste 27 Este 0 935.4 1.2 80
2019-04-19 11:00:00 9.8 11 Sudeste 32 Este 0 934.9 1.4 84
2019-04-19 10:00:00 9.3 15 Sudeste 30 Este 0 934.7 1.8 90
2019-04-19 09:00:00 9 7 Sudeste 25 Este 0 934.2 1.4 91
2019-04-19 08:00:00 8.7 9 Sudeste 26 Este 0 933.5 0.8 91
2019-04-19 07:00:00 8.9 14 Este 26 Este 0.2 932.9 0.2 91
2019-04-19 06:00:00 8.9 7 Sudeste 23 Este 0 932.8 0 90
2019-04-19 05:00:00 9.4 5 Sudeste 20 Este 0 932.7 -0.1 89
2019-04-19 04:00:00 9.3 0 Calma 8 Sur 0 932.7 -0.1 89
2019-04-19 03:00:00 9 4 Sudoeste 9 Sudoeste 0 932.8 0.2 89
2019-04-19 02:00:00 9 5 Sudoeste 10 Norte 0 932.8 0.1 89
2019-04-19 01:00:00 9.3 5 Oeste 12 Norte 0 932.8 0.7 89
2019-04-19 00:00:00 9.4 5 Sudoeste 11 Norte 3 932.6 1.4 89
2019-04-18 23:00:00 9.5 4 Sudoeste 24 Oeste 3.2 932.7 1.8 85
2019-04-18 22:00:00 10.2 6 Norte 25 Nordeste 0 932.1 1.2 85
2019-04-18 21:00:00 10.4 8 Nordeste 31 Nordeste 0 931.2 0.6 81
2019-04-18 20:00:00 11.2 8 Norte 30 Nordeste 0 930.9 -0.3 76
2019-04-18 19:00:00 12.5 4 Oeste 13 Oeste 0 930.9 -0.9 63
2019-04-18 18:00:00 12.3 2 Norte 24 Este 0 930.6 -1.3 68
2019-04-18 17:00:00 11.9 9 Sudeste 27 Sudeste 0.2 931.2 -0.9 74
2019-04-18 16:00:00 11.2 11 Sudeste 29 Este 0 931.8 -0.5 75
2019-04-18 15:00:00 10.4 15 Sudeste 40 Sudeste 0 931.9 -1.8 78
2019-04-18 14:00:00 9.6 24 Este 48 Este 0 932.1 -1.4 79
2019-04-18 13:00:00 8.7 33 Este 47 Este 1.6 932.3 -1 87
2019-04-18 12:00:00 9.3 19 Sudeste 33 Este 2.4 933.7 1.4 90
2019-04-18 11:00:00 9.2 18 Este 30 Este 5 933.5 1.4 91
2019-04-18 10:00:00 9.5 6 Este 21 Este 1.2 933.3 1.3 91
2019-04-18 09:00:00 9.8 6 Nordeste 20 Nordeste 1.8 932.3 0.3 90
2019-04-18 08:00:00 10.3 5 Noroeste 13 Noroeste 1.6 932.1 -0.3 88
2019-04-18 07:00:00 10.4 4 Sur 14 Sudeste 0.6 932 -0.8 87
2019-04-18 06:00:00 10.4 6 Sudeste 33 Este 7.2 932 -1.7 86
2019-04-18 05:00:00 11.1 15 Sudeste 37 Sudeste 2.6 932.4 -1.5 89
2019-04-18 04:00:00 12.5 6 Sudeste 21 Sur 1.6 932.8 -0.7 87
2019-04-18 03:00:00 13.5 9 Sudeste 24 Sur 1 933.7 0.3 83
2019-04-18 02:00:00 14.3 9 Sudeste 22 Sur 0 933.9 1.1 76
2019-04-18 01:00:00 15 9 Sudeste 27 Sudoeste 0 933.5 1.7 69
2019-04-18 00:00:00 16.2 13 Sudoeste 25 Sur 0 933.4 2.1 61
2019-04-17 23:00:00 17.6 15 Sur 27 Sur 0 932.8 2.7 47
2019-04-17 22:00:00 18.2 13 Sudoeste 27 Oeste 0 931.8 2.8 43
2019-04-17 21:00:00 19.2 16 Sudoeste 28 Oeste 0 931.3 3.2 41
2019-04-17 20:00:00 20.1 27 Oeste 49 Oeste 0 930.1 1.7 35
2019-04-17 19:00:00 21.5 23 Sudeste 61 Este 0 929 -0.6 37
2019-04-17 18:00:00 22.5 31 Este 63 Este 0 928.1 -2.2 32
2019-04-17 17:00:00 23.7 30 Este 54 Este 0 928.4 -3 30
2019-04-17 16:00:00 23.3 25 Este 46 Este 0 929.6 -2.7 30
2019-04-17 15:00:00 22.9 22 Sudeste 50 Este 0 930.3 -- 31
2019-04-17 14:00:00 22 20 Este 43 Este 0 931.4 -1.3 32
2019-04-17 13:00:00 20 18 Sudeste -- -- -- 932.3 -0.5 39
2019-04-17 12:00:00 -- -- -- -- -- -- -- -- --
2019-04-17 11:00:00 15 -- -- -- -- 0 932.7 -0.7 58
2019-04-17 10:00:00 12.6 29 Este -- -- 0 932.8 -0.7 68
2019-04-17 09:00:00 10.4 -- -- -- -- 0 933.3 -0.4 79
2019-04-17 08:00:00 8.9 -- -- -- -- 0 933.4 -0.6 83
2019-04-17 07:00:00 8.6 15 Este -- -- 0 933.5 -0.8 82
2019-04-17 06:00:00 9.5 -- -- -- -- 0 933.7 -1.2 79
2019-04-17 05:00:00 10 -- -- -- -- 0 934 -0.8 77
2019-04-17 04:00:00 10.6 -- -- -- -- 0 934.3 -0.4 74
2019-04-17 03:00:00 11.7 18 Este -- -- 0 934.9 0.7 72
2019-04-17 02:00:00 12.9 -- -- -- -- 0 934.8 0.7 69
2019-04-17 01:00:00 14 -- -- -- -- 0 934.7 0.8 65
2019-04-17 00:00:00 15.2 19 Sudeste -- -- 0 934.2 0.4 58
2019-04-16 23:00:00 16.4 14 Este 27 Este 0 934.1 0.1 35
2019-04-16 22:00:00 17.9 12 Este 24 Este 0 933.9 -0.2 26
2019-04-16 21:00:00 21 6 Sudeste 27 Sudeste 0 933.8 -1 21
2019-04-16 20:00:00 22.4 10 Sur 27 Sudeste 0 934 -1.7 20
2019-04-16 19:00:00 22.4 13 Sudeste 30 Sudeste 0 934.1 -2.5 22
2019-04-16 18:00:00 22.2 12 Sudeste 32 Sudeste 0 934.8 -2.3 19
2019-04-16 17:00:00 21.7 13 Sudeste 30 Sudeste 0 935.7 -1.9 19
2019-04-16 16:00:00 20.9 14 Sur 33 Este 0 936.6 -1.7 23
2019-04-16 15:00:00 20 15 Sudeste 29 Sudeste 0 937.1 -1.6 27
2019-04-16 14:00:00 17.9 13 Sudeste 34 Este 0 937.6 -1 31
2019-04-16 13:00:00 17.1 12 Sudeste -- -- 0 938.3 -0.1 36
2019-04-16 12:00:00 15.6 14 Este 33 Este 0 938.7 0.8 46
2019-04-16 11:00:00 13.9 8 Este 17 Este 0 938.6 0.8 53
2019-04-16 10:00:00 11.6 5 Noroeste 14 Noroeste 0 938.4 0.8 65
2019-04-16 09:00:00 6.9 5 Sudoeste 19 Oeste 0 937.9 0.2 79
2019-04-16 08:00:00 5.4 7 Oeste 20 Oeste 0 937.8 -0.1 78
2019-04-16 07:00:00 6.1 9 Oeste 13 Sudoeste 0 937.6 -0.1 79
2019-04-16 06:00:00 6.8 4 Oeste 12 Sudoeste 0 937.7 0.2 76
2019-04-16 05:00:00 8.7 8 Oeste 16 Oeste 0 937.9 0.5 72
2019-04-16 04:00:00 8.1 6 Oeste 10 Norte 0 937.7 0.6 70
2019-04-16 03:00:00 9 4 Este 11 Norte 0 937.5 0.9 67
2019-04-16 02:00:00 10 5 Noroeste 18 Noroeste 0 937.4 1.5 65
2019-04-16 01:00:00 11.1 11 Oeste 25 Noroeste 0 937.1 2.4 58
2019-04-16 00:00:00 12.6 14 Oeste -- -- 0 936.6 3.2 56
2019-04-15 23:00:00 13.7 24 Noroeste 46 Noroeste 0 935.9 3.8 64
2019-04-15 22:00:00 14.5 30 Noroeste 50 Oeste 0 934.7 3.4 60
2019-04-15 21:00:00 17.3 -- -- -- -- 0 933.4 2.2 46
2019-04-15 20:00:00 21.5 -- -- -- -- 0 932.1 0.7 32
2019-04-15 19:00:00 23.4 21 Oeste 44 Sudoeste 0 931.3 -0.6 27
2019-04-15 18:00:00 24.5 19 Oeste 50 Sudoeste 0 931.2 -1.2 23
2019-04-15 17:00:00 24.3 25 Sudoeste 55 Oeste 0 931.4 -1.5 25
2019-04-15 16:00:00 25.2 28 Sudoeste 48 Sudoeste 0 931.9 -1.6 20
2019-04-15 15:00:00 24.2 29 Sudoeste 49 Sur 0 932.4 -1.5 27
2019-04-15 14:00:00 22.4 29 Sudoeste 56 Sur 0 932.9 -0.8 30
2019-04-15 13:00:00 20.7 15 Sur 33 Sur 0 933.5 0.1 43
2019-04-15 12:00:00 18.8 16 Sur 28 Sur 0 933.9 -0.1 53
2019-04-15 11:00:00 17.5 12 Sudeste 25 Sur 0 933.7 -0.4 58
2019-04-15 10:00:00 15.7 11 Sudeste 22 Sudeste 0 933.4 -0.3 65
2019-04-15 09:00:00 12.1 5 Sudeste 12 Sur 0 934 -0.4 75
2019-04-15 08:00:00 12 6 Sudeste 16 Sur 0 934.1 -0.6 76
2019-04-15 07:00:00 11.9 5 Sudeste 11 Este 0 933.7 -1.4 72
2019-04-15 06:00:00 11.4 2 Sur 11 Este 0 934.4 -1.2 72
2019-04-15 05:00:00 12.6 0 Calma 14 Sur 0 934.7 -1 67
2019-04-15 04:00:00 14 6 Sudeste 17 Sudeste 0 935.1 -1 67
2019-04-15 03:00:00 14.1 9 Sur 20 Oeste 0 935.6 -0.7 69
2019-04-15 02:00:00 14.4 12 Oeste 20 Oeste 0 935.7 -0.6 64
2019-04-15 01:00:00 15.2 7 Sudoeste 15 Sudoeste 0 936.1 0.2 63
2019-04-15 00:00:00 15.8 8 Oeste 20 Oeste 0 936.3 1 60
2019-04-14 23:00:00 16.8 13 Sudoeste 23 Oeste 0 936.3 1.3 57
2019-04-14 22:00:00 18.3 15 Sudoeste 30 Sudoeste 0 935.9 0.9 52
2019-04-14 21:00:00 20.1 19 Sudoeste 33 Sudoeste 0 935.3 0.3 47
2019-04-14 20:00:00 22 19 Sudoeste 33 Sudoeste 0 935 -0.5 40
2019-04-14 19:00:00 23.1 18 Sudoeste 35 Sudoeste 0 935 -1.3 35
2019-04-14 18:00:00 23.5 13 Sudoeste 32 Sudoeste 0 935 -1.7 33
2019-04-14 17:00:00 23.3 13 Sudoeste 32 Sudoeste 0 935.5 -1.6 35
2019-04-14 16:00:00 22.8 12 Oeste 31 Oeste 0 936.3 -1.5 35
2019-04-14 15:00:00 21.8 12 Sudoeste 28 Oeste 0 936.7 -1.4 36
2019-04-14 14:00:00 20.7 10 Sur 24 Norte 0 937.1 -1 36
2019-04-14 13:00:00 19.3 7 Oeste 23 Norte 0 937.8 -0.2 41
2019-04-14 12:00:00 17.7 6 Oeste 20 Oeste 0 938.1 0.2 48
2019-04-14 11:00:00 16.2 2 Sur 15 Sudoeste 0 938.1 0.6 57
2019-04-14 10:00:00 13 8 Sudoeste 14 Oeste 0 938 0.6 55
2019-04-14 09:00:00 9.8 3 Oeste 16 Este 0 937.9 0.3 61
2019-04-14 08:00:00 7.7 3 Sur 7 Sudeste 0 937.5 -0.3 63
2019-04-14 07:00:00 8.1 3 Sudoeste 8 Sudeste 0 937.4 -0.5 60
2019-04-14 06:00:00 8.1 4 Oeste 10 Norte 0 937.6 -0.3 63
2019-04-14 05:00:00 8.4 5 Noroeste 14 Oeste 0 937.8 -0.6 59
2019-04-14 04:00:00 9.8 7 Oeste 12 Sudoeste 0 937.9 -0.8 57
2019-04-14 03:00:00 11.5 11 Sudoeste 22 Oeste 0 937.9 -0.7 53
2019-04-14 02:00:00 11.7 11 Oeste 18 Sudoeste 0 938.4 -0.1 53
2019-04-14 01:00:00 11.4 11 Sudoeste 16 Sudoeste 0 938.7 0.8 53
2019-04-14 00:00:00 13.3 11 Sudoeste 19 Oeste 0 938.6 1.6 47
2019-04-13 23:00:00 14.3 11 Oeste 17 Oeste 0 938.5 1.8 33
2019-04-13 22:00:00 16 8 Oeste 23 Oeste 0 937.9 1.4 21
2019-04-13 21:00:00 18.7 10 Noroeste 33 Noroeste 0 937 0.3 16
2019-04-13 20:00:00 20.8 15 Noroeste 34 Noroeste 0 936.7 -0.3 14
2019-04-13 19:00:00 21.6 15 Noroeste 35 Noroeste 0 936.5 -1 14
2019-04-13 18:00:00 21.7 14 Oeste 29 Noroeste 0 936.7 -1.3 15
2019-04-13 17:00:00 21.5 13 Noroeste 30 Norte 0 937 -1.5 14
2019-04-13 16:00:00 20.4 9 Oeste 27 Noroeste 0 937.5 -1.5 17
2019-04-13 15:00:00 19.5 8 Sur 28 Oeste 0 938 -1.2 19
2019-04-13 14:00:00 17.9 12 Noroeste 27 Noroeste 0 938.5 -0.6 23
2019-04-13 13:00:00 16.9 13 Noroeste 26 Norte 0 939 0.1 25
2019-04-13 12:00:00 15.6 10 Noroeste 22 Noroeste 0 939.2 0.6 26
2019-04-13 11:00:00 13.8 10 Noroeste 18 Norte 0 939.1 1.1 31
2019-04-13 10:00:00 10.8 7 Oeste 20 Oeste 0 938.9 1.2 42
2019-04-13 09:00:00 4.9 5 Sudoeste 17 Oeste 0 938.6 1 62
2019-04-13 08:00:00 3 6 Sudoeste 14 Sudoeste 0 938 0.5 63
2019-04-13 07:00:00 3.4 8 Sudoeste 12 Sudoeste 0 937.7 -0.1 63
2019-04-13 06:00:00 5 10 Sudoeste 15 Oeste 0 937.6 -0.4 59
2019-04-13 05:00:00 5.1 8 Oeste 14 Oeste 0 937.5 -0.6 54
2019-04-13 04:00:00 5.8 10 Oeste 17 Oeste 0 937.8 -0.1 53
2019-04-13 03:00:00 5.7 10 Oeste 17 Oeste 0 938 0.5 54
2019-04-13 02:00:00 6.7 10 Oeste 20 Oeste 0 938.1 0.9 51
2019-04-13 01:00:00 7.7 12 Oeste 30 Oeste 0 937.9 1.2 46
2019-04-13 00:00:00 8.1 11 Oeste 26 Oeste 0 937.5 1.2 45
2019-04-12 23:00:00 10.8 10 Oeste 23 Oeste 0 937.2 1.2 39
2019-04-12 22:00:00 12.6 9 Oeste 23 Oeste 0 936.7 0.7 32
2019-04-12 21:00:00 15.8 11 Noroeste 35 Noroeste 0 936.3 0.3 24
2019-04-12 20:00:00 17.4 18 Noroeste -- -- 0 936 -0.3 25
2019-04-12 19:00:00 18.3 14 Oeste -- -- 0 936 -1.2 23
2019-04-12 18:00:00 18.3 18 Noroeste -- -- 0 936 -1.6 24
2019-04-12 17:00:00 17.3 15 Norte -- -- 0 936.3 -1.6 27
2019-04-12 16:00:00 16.6 16 Noroeste -- -- 0 937.2 -1.3 28
2019-04-12 15:00:00 15.6 14 Oeste -- -- 0 937.6 -1.2 31
2019-04-12 14:00:00 14.4 -- -- -- -- 0 937.9 -0.9 33
2019-04-12 13:00:00 12.9 -- -- -- -- 0 938.5 -0.2 40
2019-04-12 12:00:00 11.2 8 Norte 28 Nordeste 0 938.8 0.3 44
2019-04-12 11:00:00 9.3 8 Norte 25 Norte 0 938.8 0.6 52
2019-04-12 10:00:00 7.1 6 Noroeste -- -- 0 938.7 0.7 64
2019-04-12 09:00:00 2 8 Oeste -- -- 0 938.5 0.5 75
2019-04-12 08:00:00 0.7 6 Oeste 17 Oeste 0 938.2 0.3 76
2019-04-12 07:00:00 0.8 7 Oeste -- -- 0 938 0 72
2019-04-12 06:00:00 2.1 8 Oeste 10 Noroeste 0 938 -0.3 69
2019-04-12 05:00:00 3.4 7 Noroeste 21 Oeste 0 937.9 -0.5 65
2019-04-12 04:00:00 3.4 6 Oeste 12 Oeste 0 938 -0.1 65
2019-04-12 03:00:00 4 9 Oeste 23 Oeste 0 938.3 0.1 61
2019-04-12 02:00:00 4.7 9 Oeste -- -- 0 938.4 0.6 59
2019-04-12 01:00:00 5.6 -- -- -- -- 0 938.1 0.9 54
2019-04-12 00:00:00 6.8 8 Noroeste -- -- 0 938.2 1.6 49
2019-04-11 23:00:00 9.6 8 Norte 16 Noroeste 0 937.8 1.6 42
2019-04-11 22:00:00 12 6 Norte 30 Nordeste 0 937.2 0.9 33
2019-04-11 21:00:00 14.1 14 Norte 38 Norte 0 936.6 0.3 29
2019-04-11 20:00:00 15.6 15 Noroeste -- -- 0 936.2 -0.5 27
2019-04-11 19:00:00 16 17 Noroeste -- -- 0 936.3 -0.7 21
2019-04-11 18:00:00 15.8 13 Noroeste -- -- 0 936.3 -1.1 25
2019-04-11 17:00:00 15.5 17 Noroeste 48 Noroeste 0 936.7 -1.1 27
2019-04-11 16:00:00 15.3 18 Noroeste 41 Oeste 0 937 -1.2 29
2019-04-11 15:00:00 14 17 Noroeste 42 Norte 0 937.4 -0.9 33
2019-04-11 14:00:00 13 21 Norte 44 Norte 0 937.8 -0.5 38
2019-04-11 13:00:00 11.8 17 Noroeste 37 Norte 0 938.2 0.1 43
2019-04-11 12:00:00 10.5 15 Norte 35 Norte 0 938.3 0.4 49
2019-04-11 11:00:00 9 12 Norte 22 Noroeste 0 938.3 0.9 57
2019-04-11 10:00:00 6.8 12 Noroeste 22 Oeste 0 938.1 1 75
2019-04-11 09:00:00 2.6 8 Noroeste 14 Noroeste 0 937.9 0.9 87
2019-04-11 08:00:00 0.9 6 Oeste 12 Oeste 0 937.4 0.7 86
2019-04-11 07:00:00 1.1 6 Noroeste 14 Noroeste 0 937.1 0.8 86
2019-04-11 06:00:00 1.4 10 Noroeste 13 Noroeste 0 937 0.5 85
2019-04-11 05:00:00 2.4 10 Noroeste 15 Noroeste 0 936.7 0.3 83
2019-04-11 04:00:00 4 11 Noroeste 17 Noroeste 0 936.3 -0.1 85
2019-04-11 03:00:00 3.6 10 Oeste 14 Oeste 0 936.5 0.4 84
2019-04-11 02:00:00 4 11 Oeste 18 Oeste 0 936.4 0.4 84
2019-04-11 01:00:00 4.5 10 Oeste 23 Oeste 0 936.4 1.3 84
2019-04-11 00:00:00 5.4 8 Oeste 23 Oeste 0 936.1 1.8 82
2019-04-10 23:00:00 7.1 14 Oeste 20 Oeste 0 936 2 79
2019-04-10 22:00:00 7.9 15 Oeste 27 Noroeste 0 935.1 1.9 75
2019-04-10 21:00:00 9.6 17 Noroeste -- -- 0 934.3 0.8 66
2019-04-10 20:00:00 11.3 -- -- -- -- 0 934 0.5 61
2019-04-10 19:00:00 10.8 -- -- -- -- 0 933.2 -0.3 63
2019-04-10 18:00:00 9.4 -- -- -- -- 0.2 933.5 -0.1 70
2019-04-10 17:00:00 10.8 24 Noroeste 42 Norte 0.2 933.5 -0.3 63
2019-04-10 16:00:00 12.3 13 Noroeste -- -- 0 933.5 -0.7 51
2019-04-10 15:00:00 12.8 -- -- -- -- 0 933.6 -1 39
2019-04-10 14:00:00 12.2 -- -- -- -- 0 933.8 -0.7 37
2019-04-10 13:00:00 12.3 -- -- -- -- 0 934.2 -0.2 42
2019-04-10 12:00:00 10.9 -- -- -- -- 0 934.6 0.4 50
2019-04-10 11:00:00 9.9 19 Oeste 32 Oeste 0 934.5 0.7 58
2019-04-10 10:00:00 7.6 14 Oeste 23 Oeste 0 934.4 0.9 69
2019-04-10 09:00:00 4.8 9 Sudoeste 21 Oeste 0 934.2 0.5 84
2019-04-10 08:00:00 3.7 13 Oeste 22 Oeste 0 933.8 0 86
2019-04-10 07:00:00 4 14 Oeste 21 Sudoeste 0 933.5 -0.2 86
2019-04-10 06:00:00 3.8 6 Sudoeste 17 Sudoeste 0 933.7 -0.4 84
2019-04-10 05:00:00 4.4 12 Sudoeste 17 Sudoeste 0 933.8 -0.2 83
2019-04-10 04:00:00 4.5 9 Sudoeste 12 Sudoeste 0 933.7 -0.2 80
2019-04-10 03:00:00 5.4 0 Calma 19 Sudoeste 0 934.1 0.1 77
2019-04-10 02:00:00 5.8 10 Sudoeste 21 Oeste 0 934 0 76
2019-04-10 01:00:00 7.5 11 Oeste 20 Sudoeste 0 933.9 0.6 71
2019-04-10 00:00:00 8 9 Oeste 18 Oeste 0 934 1.3 70
2019-04-09 23:00:00 8.9 10 Sudoeste 21 Oeste 0 934 1.6 68
2019-04-09 22:00:00 9.4 14 Oeste -- -- 0 933.3 1.3 56
2019-04-09 21:00:00 11.5 -- -- -- -- 0 932.7 0.9 53
2019-04-09 20:00:00 11.1 13 Noroeste -- -- 0 932.4 0.4 52
2019-04-09 19:00:00 13 -- -- -- -- 0 932 -0.5 40
2019-04-09 18:00:00 13.3 -- -- -- -- 0 931.8 -1.2 46
2019-04-09 17:00:00 12.4 -- -- -- -- 0 932 -1.3 53
2019-04-09 16:00:00 12 28 Oeste -- -- 0.2 932.5 -1.2 55
2019-04-09 15:00:00 10.6 -- -- -- -- 0.2 933 -1.1 68
2019-04-09 14:00:00 11.2 -- -- -- -- 0 933.3 -0.9 56
2019-04-09 13:00:00 11.6 -- -- -- -- 0 933.7 -0.8 51
2019-04-09 12:00:00 10.6 -- -- -- -- 0 934.1 -0.2 57
2019-04-09 11:00:00 10 -- -- -- -- 0 934.2 0.1 58
2019-04-09 10:00:00 8.1 -- -- -- -- 0 934.5 0.2 73
2019-04-09 09:00:00 5.7 11 Sudoeste -- -- 0 934.3 0.1 83
2019-04-09 08:00:00 5.3 14 Sudoeste -- -- 0 934.1 0 83
2019-04-09 07:00:00 5.2 15 Oeste -- -- 0 934.3 0.1 83
2019-04-09 06:00:00 5 -- -- -- -- 0 934.2 0.2 84
2019-04-09 05:00:00 4.9 13 Oeste 18 Oeste 0 934.1 0.1 83
2019-04-09 04:00:00 6.2 13 Sudoeste -- -- 0 934.2 0.4 79
2019-04-09 03:00:00 6.7 10 Oeste 15 Oeste 0 934 0.6 75
2019-04-09 02:00:00 7.3 7 Oeste 19 Sudoeste 0 934 1 69
2019-04-09 01:00:00 8.5 13 Oeste 29 Oeste 0 933.8 1.3 65
2019-04-09 00:00:00 9.7 15 Oeste -- -- 0 933.4 1.1 57
2019-04-08 23:00:00 10.3 -- -- -- -- 0 933 1 52
2019-04-08 22:00:00 10.7 14 Oeste -- -- 0 932.5 1 50
2019-04-08 21:00:00 12.7 17 Sudoeste -- -- 0 932.3 0.4 45
2019-04-08 20:00:00 14.7 -- -- -- -- 0 932 -0.1 41
2019-04-08 19:00:00 15.9 -- -- -- -- 0 931.5 -1 39
2019-04-08 18:00:00 16 -- -- -- -- 0 931.9 -1.1 39
2019-04-08 17:00:00 16.2 -- -- -- -- 0 932.1 -1.3 43
2019-04-08 16:00:00 16.6 -- -- -- -- 0 932.5 -1.2 39
2019-04-08 15:00:00 15.7 -- -- -- -- 0 933 -0.8 51
2019-04-08 14:00:00 15.3 -- -- -- -- 0 933.4 -0.4 56
2019-04-08 13:00:00 13.6 -- -- -- -- 0 933.7 0.1 61
2019-04-08 12:00:00 11.6 -- -- -- -- 0 933.8 0.3 79
2019-04-08 11:00:00 10.4 -- -- -- -- 0 933.8 0.9 80
2019-04-08 10:00:00 9.5 16 Sudoeste 28 Sudoeste 0.4 933.6 0.9 84
2019-04-08 09:00:00 9.2 13 Sudoeste 28 Oeste 0.4 933.5 0.6 87
2019-04-08 08:00:00 9.2 10 Sudoeste 27 Oeste 0 932.9 -0.1 88
2019-04-08 07:00:00 9.3 15 Sudoeste 27 Sudoeste 0.8 932.7 -0.3 89
2019-04-08 06:00:00 9.3 11 Sudoeste 30 Sudoeste 0.6 932.9 -0.5 89
2019-04-08 05:00:00 9.4 13 Sudoeste 29 Sudoeste 0 933 -0.5 85
2019-04-08 04:00:00 9.3 9 Sudoeste 18 Oeste 0 933 -0.7 86
2019-04-08 03:00:00 9.6 11 Sudoeste -- -- 0 933.4 -0.3 86
2019-04-08 02:00:00 9.6 12 Sudoeste 26 Sudoeste 0 933.5 -0.5 85
2019-04-08 01:00:00 9.6 9 Sur 28 Sudoeste 0 933.7 -0.2 84
2019-04-08 00:00:00 9.4 6 Sur 24 Sur 0 933.7 -0.2 82
2019-04-07 23:00:00 9.2 5 Sur 26 Sur 0 934 0.6 81
2019-04-07 22:00:00 9.2 7 Sudoeste 21 Sudoeste 0.2 933.9 0.9 80
2019-04-07 21:00:00 9.3 5 Oeste 31 Oeste 0.2 933.9 1.4 78
2019-04-07 20:00:00 10.4 15 Sudoeste -- -- 0 933.4 0.9 61
2019-04-07 19:00:00 11.2 -- -- -- -- 0 933 0.7 55
2019-04-07 18:00:00 12.1 -- -- -- -- 0 932.5 0.2 48
2019-04-07 17:00:00 12.1 -- -- -- -- 0 932.5 0.3 48
2019-04-07 16:00:00 12 18 Sudoeste 48 Sudoeste 0 932.3 0.3 48
2019-04-07 15:00:00 12 25 Oeste 40 Sudoeste 0 932.3 0.7 47
2019-04-07 14:00:00 11.5 21 Oeste 44 Oeste 0 932.2 1 47
2019-04-07 13:00:00 10.8 20 Oeste 40 Oeste 0 932 1 50
2019-04-07 12:00:00 10.2 22 Oeste 44 Noroeste 0 931.6 1.5 52
2019-04-07 11:00:00 8.6 27 Noroeste 37 Noroeste 0 931.2 2.2 63
2019-04-07 10:00:00 5 3 Oeste 20 Oeste 0 931 2.7 77
2019-04-07 09:00:00 3.8 5 Sudoeste 28 Noroeste 0 930.1 2.3 82
2019-04-07 08:00:00 4.5 17 Noroeste 28 Oeste 0 929 1.6 78
2019-04-07 07:00:00 4.9 19 Oeste 28 Oeste 0 928.3 0.8 82
2019-04-07 06:00:00 4.8 9 Oeste 22 Oeste 0 927.8 0.6 81
2019-04-07 05:00:00 5.2 13 Oeste 29 Oeste 0 927.4 0.3 80
2019-04-07 04:00:00 5.5 15 Oeste 26 Oeste 0 927.5 0.1 74
2019-04-07 03:00:00 5.5 15 Oeste 27 Oeste 0 927.2 0.4 72
2019-04-07 02:00:00 5.3 17 Sudoeste 24 Sudoeste 0 927.1 0.5 76
2019-04-07 01:00:00 5 15 Sudoeste 33 Sudoeste 0 927.4 1.3 74
2019-04-07 00:00:00 5.6 20 Oeste 36 Oeste 0 926.8 1.7 71
2019-04-06 23:00:00 6.1 18 Oeste 37 Oeste 0 926.6 1.9 68
2019-04-06 22:00:00 6.6 22 Oeste 45 Sudoeste 0 926.1 2.1 63
2019-04-06 21:00:00 7.3 26 Oeste 46 Oeste 0 925.1 1.4 57
2019-04-06 20:00:00 8.3 28 Oeste 52 Oeste 0 924.7 1 56
2019-04-06 19:00:00 8.9 26 Oeste 57 Oeste 0 924 -0.2 53
2019-04-06 18:00:00 8.9 28 Oeste -- -- 0 923.7 -0.4 50
2019-04-06 17:00:00 9.7 -- -- -- -- 0 923.7 -0.6 52
2019-04-06 16:00:00 10.1 29 Sudoeste -- -- 0 924.2 -0.7 53
2019-04-06 15:00:00 9.3 30 Oeste -- -- 0 924.1 -0.7 57
2019-04-06 14:00:00 9.9 35 Oeste 62 Oeste 0 924.3 -0.5 54
2019-04-06 13:00:00 7.3 33 Sudoeste 64 Sudoeste 0 924.9 0.1 66
2019-04-06 12:00:00 7.3 28 Sudoeste -- -- 0 924.8 0.2 68
2019-04-06 11:00:00 6.1 -- -- -- -- 0 924.8 0.7 75
2019-04-06 10:00:00 5.3 17 Sudoeste -- -- 0 924.8 1.1 78
2019-04-06 09:00:00 4.4 16 Sudoeste -- -- 0 924.6 1.3 75
2019-04-06 08:00:00 3.9 15 Sudoeste 31 Oeste 0 924.1 0.8 78
2019-04-06 07:00:00 3.7 -- -- -- -- 0 923.7 0.3 82
2019-04-06 06:00:00 3.3 12 Sudoeste 24 Oeste 0 923.3 -0.2 81
2019-04-06 05:00:00 3.4 14 Oeste 24 Sudoeste 0 923.3 -0.2 82
2019-04-06 04:00:00 4.2 15 Sudoeste 26 Sudoeste 0 923.4 0.1 81
2019-04-06 03:00:00 4.5 15 Sudoeste 21 Sudoeste 0 923.5 0.3 83
2019-04-06 02:00:00 4.7 13 Sudoeste 24 Sudoeste 0 923.5 0.8 80
2019-04-06 01:00:00 3.8 10 Sudoeste 30 Oeste 0 923.3 1.4 81
2019-04-06 00:00:00 4.7 15 Oeste -- -- 0 923.2 1.9 79
2019-04-05 23:00:00 5.7 17 Oeste -- -- 0 922.7 1.8 70
2019-04-05 22:00:00 5.2 14 Oeste 29 Oeste 0 921.9 1.6 67
2019-04-05 21:00:00 5.5 11 Sudoeste -- -- 0.2 921.3 1.8 70
2019-04-05 20:00:00 5.2 -- -- -- -- 0 920.9 1.7 68
2019-04-05 19:00:00 7.8 -- -- -- -- 0 920.3 0.5 63
2019-04-05 18:00:00 9.6 24 Oeste 53 Sudoeste 0 919.5 -0.7 52
2019-04-05 17:00:00 9.7 23 Oeste 42 Oeste 0 919.2 -1.1 55
2019-04-05 16:00:00 8.4 20 Sudoeste 35 Oeste 0 919.8 -0.8 68
2019-04-05 15:00:00 7.4 24 Sudoeste 44 Sudoeste 0.2 920.2 -0.7 78
2019-04-05 14:00:00 7.6 20 Sudoeste 42 Sudoeste 0 920.3 -0.5 74
2019-04-05 13:00:00 7.1 17 Sudoeste 33 Sur 0.2 920.6 0.1 79
2019-04-05 12:00:00 6.6 13 Sur 33 Sudoeste 0 920.9 0.3 82
2019-04-05 11:00:00 6.4 19 Sudoeste 44 Sudoeste 0 920.8 -0.2 76
2019-04-05 10:00:00 7.1 24 Sudoeste 46 Sur 0 920.5 -0.4 71
2019-04-05 09:00:00 6.6 13 Sur 37 Sudoeste 0 920.6 -0.2 75
2019-04-05 08:00:00 7.5 17 Sudoeste 37 Sudoeste 0 921 -0.2 64
2019-04-05 07:00:00 7.9 15 Sudoeste 31 Sudoeste 0 920.9 -0.4 57
2019-04-05 06:00:00 8.3 10 Sudoeste 35 Sudoeste 0 920.8 -0.7 56
2019-04-05 05:00:00 8.8 12 Sudoeste 30 Oeste 0 921.2 -0.1 52
2019-04-05 04:00:00 9.3 17 Sudoeste 28 Sudoeste 0 921.3 -0.3 46
2019-04-05 03:00:00 9.7 19 Oeste 35 Oeste 0 921.5 -0.1 37
2019-04-05 02:00:00 9.7 12 Sudoeste 24 Sur 0 921.3 -0.4 38
2019-04-05 01:00:00 10 12 Sudoeste 22 Sur 0 921.6 0.4 39
2019-04-05 00:00:00 10.2 13 Sudoeste 20 Sudoeste 0 921.6 0.5 38
2019-04-04 23:00:00 9.6 9 Sudoeste 31 Oeste 0 921.7 0.5 41
2019-04-04 22:00:00 10.8 12 Oeste 20 Oeste 0 921.2 -0.4 34
2019-04-04 21:00:00 13.2 12 Sudoeste 35 Sudoeste 0 921.1 -0.7 28
2019-04-04 20:00:00 14.8 17 Sudoeste 40 Sur 0 921.2 -1.4 23
2019-04-04 19:00:00 15.3 16 Sudoeste 42 Sur 0 921.6 -1.8 24
2019-04-04 18:00:00 15.5 12 Sur 35 Sur 0 921.8 -2.7 22
2019-04-04 17:00:00 14.9 8 Sur 29 Sudoeste 0 922.6 -2.7 25
2019-04-04 16:00:00 13.6 9 Noroeste 31 Oeste 0 923.4 -2.4 24
2019-04-04 15:00:00 12 8 Noroeste 28 Oeste 0 924.5 -1.6 28
2019-04-04 14:00:00 10.3 9 Sudoeste 25 Oeste 0 925.3 -0.7 28
2019-04-04 13:00:00 9.1 7 Sur 22 Oeste 0 925.8 -0.2 33
2019-04-04 12:00:00 7.5 9 Nordeste 23 Norte 0 926.1 0.6 42
2019-04-04 11:00:00 5.9 7 Nordeste 21 Norte 0 926 1 51
2019-04-04 10:00:00 3.2 8 Noroeste 18 Oeste 0 926 1.4 66
2019-04-04 09:00:00 0 8 Oeste 13 Oeste 0 925.5 1.1 74
2019-04-04 08:00:00 -1.3 9 Noroeste 13 Noroeste 0 925 0.7 76
2019-04-04 07:00:00 -0.8 8 Noroeste 12 Noroeste 0 924.6 0.2 75
2019-04-04 06:00:00 0 8 Noroeste 15 Noroeste 0 924.4 -0.4 73
2019-04-04 05:00:00 0.9 12 Oeste 18 Oeste 0 924.3 -0.7 70
2019-04-04 04:00:00 1.9 7 Noroeste 11 Noroeste 0 924.4 -0.5 67
2019-04-04 03:00:00 2.8 6 Noroeste -- -- 0 924.8 -0.1 65
2019-04-04 02:00:00 4.4 6 Norte 19 Nordeste 0 925 0.1 57
2019-04-04 01:00:00 4.8 10 Noroeste 18 Noroeste 0 924.9 0.5 62
2019-04-04 00:00:00 6.9 9 Noroeste 18 Noroeste 0 924.9 1.2 54
2019-04-03 23:00:00 9.6 9 Noroeste 19 Noroeste 0 924.9 1.6 41
2019-04-03 22:00:00 10.9 13 Noroeste 34 Norte 0 924.4 1.4 35
2019-04-03 21:00:00 12.1 16 Norte 37 Norte 0 923.7 0.6 33
2019-04-03 20:00:00 13.4 22 Noroeste 48 Norte 0 923.3 -0.3 33
2019-04-03 19:00:00 15.8 27 Noroeste 49 Oeste 0 923 -1.2 33
2019-04-03 18:00:00 17.6 21 Oeste 44 Oeste 0 923.1 -1.9 27
2019-04-03 17:00:00 18 22 Oeste 49 Oeste 0 923.6 -2 25
2019-04-03 16:00:00 17.6 30 Oeste 64 Oeste 0 924.2 -2.3 25
2019-04-03 15:00:00 17.6 24 Oeste 49 Oeste 0 925 -2.4 29
2019-04-03 14:00:00 17 22 Oeste 43 Sudoeste 0 925.6 -2.1 31
2019-04-03 13:00:00 15.6 21 Oeste 44 Sudoeste 0 926.5 -1.9 38
2019-04-03 12:00:00 13.6 26 Sudoeste 42 Sudoeste 0 927.4 -1.4 45
2019-04-03 11:00:00 12.1 22 Sudoeste 33 Sudoeste 0 927.7 -1.4 57
2019-04-03 10:00:00 10.2 16 Sudoeste 29 Sudoeste 0 928.4 -1 73
2019-04-03 09:00:00 8.1 15 Sudoeste 27 Oeste 0 928.8 -0.9 78
2019-04-03 08:00:00 7.1 11 Oeste 22 Sudoeste 0 929.1 -1.4 81
2019-04-03 07:00:00 6.8 11 Sudoeste 21 Sudoeste 0 929.4 -1.7 82
2019-04-03 06:00:00 7.2 9 Sudoeste 19 Sudoeste 0 929.7 -2.1 81
2019-04-03 05:00:00 7.7 13 Sudoeste 28 Oeste 0 930.5 -1.8 80
2019-04-03 04:00:00 8.4 12 Sudoeste 27 Oeste 0 931.1 -1.8 78
2019-04-03 03:00:00 9.8 18 Oeste 31 Sudoeste 0 931.8 -1.6 72
2019-04-03 02:00:00 9.7 19 Oeste 31 Oeste 0 932.3 -1.1 73
2019-04-03 01:00:00 9.4 12 Oeste 28 Oeste 0 932.9 -0.5 76
2019-04-03 00:00:00 9.8 14 Sudoeste 22 Sudoeste 0 933.4 0.3 79
2019-04-02 23:00:00 10.3 9 Sudoeste 14 Sudoeste 0 933.4 -0.1 82
2019-04-02 22:00:00 11.8 9 Sur 13 Sudeste 0 933.4 0.3 75
2019-04-02 21:00:00 13.1 9 Sudeste 18 Norte 0 933.1 -0.1 70
2019-04-02 20:00:00 13.2 -- -- -- -- 0.8 933.5 -0.3 70
2019-04-02 19:00:00 16.2 14 Oeste 36 Sudoeste 0 933.1 -1.4 54
2019-04-02 18:00:00 16.2 14 Sudoeste 35 Oeste 0 933.2 -2.2 53
2019-04-02 17:00:00 15.5 12 Sur 40 Sur 0 933.8 -1.7 56
2019-04-02 16:00:00 14 17 Sur 35 Sur 0 934.5 -1.6 66
2019-04-02 15:00:00 11.2 8 Sudoeste 31 Sudoeste 3.4 935.4 -0.8 81
2019-04-02 14:00:00 13.4 8 Sudeste 28 Este 0.4 935.5 -0.5 71
2019-04-02 13:00:00 13.1 5 Sudeste 23 Sudoeste 0 936.1 0.5 74
2019-04-02 12:00:00 11.5 9 Sudoeste 23 Sudoeste 0 936.2 0.8 79
2019-04-02 11:00:00 10.7 9 Sudoeste 13 Sudoeste 0 936 1 81
2019-04-02 10:00:00 9.9 6 Sudoeste 20 Sudoeste 0 935.6 0.9 84
2019-04-02 09:00:00 7.8 6 Sudoeste 20 Sudoeste 0 935.4 0.6 88
2019-04-02 08:00:00 6.9 3 Sudoeste 21 Sudoeste 0 935 -0.5 86
2019-04-02 07:00:00 7.5 8 Sudoeste 13 Oeste 0 934.7 -0.5 85
2019-04-02 06:00:00 8.8 8 Sudoeste 22 Sudoeste 0 934.8 -0.4 84
2019-04-02 05:00:00 9.3 6 Sudoeste 14 Sudoeste 0 935.5 0.2 84
2019-04-02 04:00:00 9.2 0 Calma 10 Norte 0 935.2 -0.4 82
2019-04-02 03:00:00 10.1 9 Sudoeste 28 Sudoeste 0 935.2 -0.4 81
2019-04-02 02:00:00 10.9 9 Sur 34 Sur 0 935.3 0 73
2019-04-02 01:00:00 10.6 14 Sur 32 Sudoeste 0 935.6 1 78
2019-04-02 00:00:00 10.8 10 Sudoeste 32 Sudoeste 0 935.6 2.1 75
2019-04-01 23:00:00 10.9 14 Sudoeste 32 Sudoeste 0 935.3 2.4 76
2019-04-01 22:00:00 12 12 Sudoeste 29 Sudoeste 0 934.6 1.6 76
2019-04-01 21:00:00 13 3 Sudoeste 13 Sur 0 933.5 0.6 70
2019-04-01 20:00:00 14 7 Sudeste 21 Sudeste 0.2 932.9 0 65
2019-04-01 19:00:00 15.1 3 Sur -- -- 0.2 933 -0.3 61
2019-04-01 18:00:00 15.2 9 Noroeste -- -- 0 932.9 -0.8 56
2019-04-01 17:00:00 15.1 5 Noroeste -- -- 0 932.9 -1 58
2019-04-01 16:00:00 14.5 5 Sudoeste 15 Oeste 0 933.3 -0.9 61
2019-04-01 15:00:00 13.3 6 Noroeste 14 Norte 0 933.7 -0.4 66
2019-04-01 14:00:00 13.3 4 Oeste 15 Norte 0 933.9 0.2 65
2019-04-01 13:00:00 12.7 4 Noroeste 11 Norte 0 934.2 1.1 69
2019-04-01 12:00:00 11.6 3 Oeste -- -- 0 934.1 1.3 78
2019-04-01 11:00:00 9.9 -- -- -- -- 0 933.7 1.3 88
2019-04-01 10:00:00 9 6 Nordeste 9 Nordeste 0 933.1 0.9 91
2019-04-01 09:00:00 8.7 4 Nordeste 10 Este 0 932.8 0.8 92
2019-04-01 08:00:00 8.5 5 Este 19 Este 0 932.4 0.1 92
2019-04-01 07:00:00 8.5 6 Este 24 Este 0 932.2 -0.2 92
2019-04-01 06:00:00 8.5 10 Este 26 Este 0 932 -0.7 91
2019-04-01 05:00:00 8.5 9 Nordeste 27 Este 0 932.3 -0.5 91
2019-04-01 04:00:00 8.5 17 Este 28 Este 0 932.4 -0.5 91
2019-04-01 03:00:00 8.5 13 Este 26 Este 0 932.7 -0.2 92
2019-04-01 02:00:00 8.5 12 Este 26 Este 0 932.8 0 92
2019-04-01 01:00:00 8.6 13 Este 27 Este 0.2 932.9 0.6 91
2019-04-01 00:00:00 8.6 14 Este 29 Este 0 932.9 1.1 91
2019-03-31 23:00:00 8.5 14 Este 28 Este 0 932.8 1.3 91
2019-03-31 22:00:00 8.7 18 Este 29 Este 0 932.3 0.6 89
2019-03-31 21:00:00 9 14 Este 30 Este 0 931.8 0.1 88
2019-03-31 20:00:00 9.1 18 Este 31 Este 0.2 931.5 -0.3 88
2019-03-31 19:00:00 9.2 18 Este 32 Este 0.8 931.7 -0.5 89
2019-03-31 18:00:00 9.9 21 Este 35 Este 0 931.7 -1.4 84
2019-03-31 17:00:00 9.9 20 Este 33 Este 0.2 931.8 -1.7 83
2019-03-31 16:00:00 9.8 14 Este 30 Este 0.6 932.2 -1.7 87
2019-03-31 15:00:00 9 18 Este 30 Este 0.2 933.1 -0.8 87
2019-03-31 14:00:00 8.1 18 Este 26 Este 0.6 933.5 -0.2 86
2019-03-31 13:00:00 7.2 17 Este 33 Este 0.8 933.9 0.5 88
2019-03-31 12:00:00 7.2 23 Este 43 Este 0.2 933.9 0.9 85
2019-03-31 11:00:00 7.1 26 Este 40 Este 0 933.7 1 85
2019-03-31 10:00:00 7.2 22 Este 44 Este 0 933.4 0.4 85
2019-03-31 09:00:00 6.5 21 Este 41 Este 0 933 -0.2 81
2019-03-31 08:00:00 6.4 22 Este 30 Este 0 932.7 -1.7 81
2019-03-31 07:00:00 6.4 16 Este 30 Este 0 933 -1.8 80
2019-03-31 06:00:00 6.8 22 Este 31 Este 0.4 933.2 -1.8 83
2019-03-31 05:00:00 7.3 12 Este 22 Este 0.4 934.4 -0.8 81
2019-03-31 03:00:00 8 19 Este 33 Este 0 935 -0.8 79
2019-03-31 01:00:00 8.9 28 Este 45 Este 0.4 935.2 -0.6 78
2019-03-31 00:00:00 9.9 25 Sudeste -- -- 0.8 935.4 0.1 77
2019-03-30 23:00:00 12.1 20 Sudeste 41 Este 0 935.8 0.9 59
2019-03-30 22:00:00 13.2 27 Este 42 Este 0 935.8 1 51
2019-03-30 21:00:00 14.5 22 Este 42 Este 0 935.3 0.3 41
2019-03-30 20:00:00 15.5 13 Este 34 Este 0 934.9 0 34
2019-03-30 19:00:00 17.5 19 Este 44 Este 0 934.8 -0.8 30
2019-03-30 18:00:00 18.1 18 Este 43 Este 0 935 -1.7 29
2019-03-30 17:00:00 18.1 21 Este 44 Este 0 934.9 -2.8 28
2019-03-30 16:00:00 17.8 18 Este -- -- 0 935.6 -3 28
2019-03-30 15:00:00 16.9 -- -- -- -- 0 936.7 -2.8 30
2019-03-30 14:00:00 15.7 22 Este 37 Este 0 937.7 -2.2 35
2019-03-30 13:00:00 14 19 Este 37 Este 0 938.6 -1.4 43
2019-03-30 12:00:00 12.1 20 Este 35 Este 0 939.5 -0.5 50
2019-03-30 11:00:00 11.2 20 Este 33 Este 0 939.9 0.2 53
2019-03-30 10:00:00 9 18 Este 41 Este 0 940 0.4 64
2019-03-30 09:00:00 5.5 9 Este 18 Este 0 940 0.3 77
2019-03-30 08:00:00 3.2 6 Este 17 Nordeste 0 939.7 0 79
2019-03-30 07:00:00 3.3 6 Este 16 Este 0 939.6 -0.3 74
2019-03-30 06:00:00 4.9 7 Sudeste 18 Sudeste 0 939.7 -0.6 70
2019-03-30 05:00:00 5.7 12 Sudeste 26 Sudeste 0 939.7 -0.9 68
2019-03-30 04:00:00 6.5 17 Sudeste 30 Este 0 939.9 -1.1 64
2019-03-30 03:00:00 6.9 18 Este 39 Sudeste 0 940.3 -0.7 60
2019-03-30 02:00:00 7.2 22 Este 36 Sudeste 0 940.6 -0.5 59
2019-03-30 01:00:00 7.9 21 Este 31 Este 0 941 0.2 59
2019-03-30 00:00:00 8.3 21 Este 39 Este 0 941 0.7 58
2019-03-29 23:00:00 9.1 23 Este 32 Este 0 941.1 1.2 55
2019-03-29 22:00:00 10.2 18 Este 34 Este 0 940.8 1.3 46
2019-03-29 21:00:00 11.2 17 Este 33 Este 0 940.3 0.8 41
2019-03-29 20:00:00 13.2 18 Este 45 Este 0 939.9 0.3 33
2019-03-29 19:00:00 15.6 22 Este 41 Este 0 939.5 -0.4 28
2019-03-29 18:00:00 16.7 21 Este 41 Este 0 939.5 -1 27
2019-03-29 17:00:00 16.5 24 Este 43 Este 0 939.6 -1.8 27
2019-03-29 16:00:00 17.7 6 Sur 42 Este 0 939.9 -2.3 21
2019-03-29 15:00:00 16.8 14 Sudeste 41 Sudeste 0 940.5 -2.3 21
2019-03-29 14:00:00 15.6 15 Sudeste 41 Sudeste 0 941.4 -1.9 26
2019-03-29 13:00:00 14.7 18 Sudeste 41 Este 0 942.2 -1.3 26
2019-03-29 12:00:00 13.1 22 Sudeste 51 Este 0 942.8 -0.7 31
2019-03-29 11:00:00 11.7 27 Este 57 Este 0 943.3 -0.2 35
2019-03-29 10:00:00 10.1 29 Este 50 Este 0 943.5 0.5 40
2019-03-29 09:00:00 7.4 19 Este 46 Este 0 943.5 0.7 51
2019-03-29 08:00:00 4.1 10 Este 23 Este 0 943.5 0.5 56
2019-03-29 07:00:00 2.9 10 Este 17 Este 0 943 -0.2 59
2019-03-29 06:00:00 3.3 7 Sudeste 16 Sur 0 942.8 -0.6 57
2019-03-29 05:00:00 3.4 11 Sudeste 20 Sudeste 0 943 -0.6 53
2019-03-29 04:00:00 3.5 11 Este 17 Este 0 943.2 -0.4 51
2019-03-29 03:00:00 3 11 Este 20 Este 0 943.4 -0.1 41
2019-03-29 02:00:00 3.7 10 Este 20 Este 0 943.6 0.3 37
2019-03-29 01:00:00 4.9 6 Este 21 Este 0 943.6 0.7 35
2019-03-29 00:00:00 8.1 8 Sudeste 22 Este 0 943.5 0.9 30
2019-03-28 23:00:00 9 5 Sudeste 24 Este 0 943.3 1.1 28
2019-03-28 22:00:00 10.7 8 Sudeste 27 Este 0 942.9 0.8 25
2019-03-28 21:00:00 12.2 9 Sudeste 18 Sur 0 942.6 0.5 23
2019-03-28 20:00:00 14.4 10 Sudeste 25 Sudeste 0 942.2 0 19
2019-03-28 19:00:00 16.7 20 Este 38 Este 0 942.1 -0.6 17
2019-03-28 18:00:00 17.2 22 Este 44 Este 0 942.1 -1.3 15
2019-03-28 17:00:00 17.7 16 Este 44 Este 0 942.2 -1.7 14
2019-03-28 16:00:00 17.7 16 Sudeste 44 Este 0 942.7 -1.9 15
2019-03-28 15:00:00 17.5 21 Este 43 Este 0 943.4 -1.8 15
2019-03-28 14:00:00 16.2 20 Este 44 Este 0 943.9 -1.6 18
2019-03-28 13:00:00 15.5 22 Sudeste 41 Este 0 944.6 -1 17
2019-03-28 12:00:00 14 17 Sudeste 37 Este 0 945.2 -0.3 15
2019-03-28 11:00:00 12 18 Sudeste 32 Este 0 945.5 -- 24
2019-03-28 10:00:00 8.2 9 Este 21 Este 0 945.6 0.5 37
2019-03-28 09:00:00 5 6 Sudeste -- -- -- 945.5 0.8 47
2019-03-28 08:00:00 -- -- -- -- -- -- -- -- --
2019-03-28 07:00:00 -0.9 2 Nordeste 13 Nordeste 0 945.1 0.9 55
2019-03-28 06:00:00 0.9 0 Calma 15 Este 0 944.7 0.6 48
2019-03-28 05:00:00 2.6 3 Sudeste 12 Sur 0 944.4 0.4 50
2019-03-28 04:00:00 3 4 Sudeste 14 Este 0 944.2 0.1 44
2019-03-28 03:00:00 3.2 7 Este 20 Este 0 944.1 0.8 40
2019-03-28 02:00:00 5.6 10 Sudeste 21 Sudeste 0 944 1.4 35
2019-03-28 01:00:00 6.1 10 Este 23 Este 0 944.1 1.8 30
2019-03-28 00:00:00 8.5 9 Sudeste 23 Este 0 943.3 1.5 26
2019-03-27 23:00:00 8.1 3 Este 16 Este 0 942.6 1.5 27
2019-03-27 22:00:00 11.5 4 Sudeste 12 Sudeste 0 942.3 1.4 22
2019-03-27 21:00:00 12.7 5 Sudeste 19 Sur 0 941.8 1 21
2019-03-27 20:00:00 15.1 7 Sudeste 19 Sudeste 0 941.1 0.2 19
2019-03-27 19:00:00 16.1 6 Nordeste 22 Este 0 940.9 -0.3 18
2019-03-27 18:00:00 16.5 15 Nordeste 38 Este 0 940.8 -0.9 17
2019-03-27 17:00:00 16.7 11 Este -- -- 0 940.9 -1.6 17
2019-03-27 16:00:00 16.2 16 Nordeste -- -- 0 941.2 -1.7 19
2019-03-27 15:00:00 15.5 21 Nordeste -- -- 0 941.7 -1.4 20
2019-03-27 14:00:00 14.6 -- -- -- -- 0 942.5 -0.7 22
2019-03-27 13:00:00 13.4 -- -- -- -- 0 942.9 0 24
2019-03-27 12:00:00 12.2 -- -- -- -- 0 943.1 0.1 27
2019-03-27 11:00:00 10.2 15 Este 30 Este 0 943.2 0.7 39
2019-03-27 10:00:00 8 15 Este 39 Este 0 942.9 1.4 53
2019-03-27 09:00:00 4.4 5 Noroeste 17 Nordeste 0 943 1.8 72
2019-03-27 08:00:00 1.9 8 Nordeste 20 Nordeste 0 942.5 1.6 80
2019-03-27 07:00:00 2.1 6 Nordeste 18 Nordeste 0 941.5 0.6 78
2019-03-27 06:00:00 3.3 8 Nordeste 25 Este 0 941.2 0.2 77
2019-03-27 05:00:00 3.6 11 Este 25 Este 0 940.9 0 73
2019-03-27 04:00:00 4.4 12 Este 26 Este 0 940.9 0.5 72
2019-03-27 03:00:00 5.2 -- -- -- -- 0 941 1.1 71
2019-03-27 02:00:00 6.3 -- -- -- -- 0 940.9 1.9 66
2019-03-27 01:00:00 7.7 -- -- -- -- 0 940.4 1.9 54
2019-03-27 00:00:00 7.7 13 Este 28 Este 0 939.9 2.4 47
2019-03-26 23:00:00 8.2 15 Este 30 Este 0 939 2.2 42
2019-03-26 22:00:00 10.3 15 Este 29 Este 0 938.5 2.4 37
2019-03-26 21:00:00 13.1 10 Sudeste 36 Este 0 937.5 1.6 31
2019-03-26 20:00:00 15 17 Este -- -- 0 936.8 1.2 27
2019-03-26 19:00:00 17.3 -- -- -- -- 0 936.1 0.3 25
2019-03-26 18:00:00 18.7 -- -- -- -- 0 935.9 -0.3 23
2019-03-26 17:00:00 19.5 -- -- -- -- 0 935.6 -1 22
2019-03-26 16:00:00 19.8 34 Este -- -- 0 935.8 -1.4 22
2019-03-26 15:00:00 19.1 -- -- -- -- 0 936.2 -1.5 23
2019-03-26 14:00:00 18.2 -- -- -- -- 0 936.6 -1.4 25
2019-03-26 13:00:00 17.5 -- -- -- -- 0 937.2 -0.9 26
2019-03-26 12:00:00 15.8 -- -- -- -- 0 937.7 -0.2 28
2019-03-26 11:00:00 13.2 -- -- -- -- 0 938 0.2 33
2019-03-26 10:00:00 8.8 9 Nordeste 22 Norte 0 938.1 0.8 45
2019-03-26 09:00:00 5.5 10 Norte 18 Norte 0 937.9 0.9 56
2019-03-26 08:00:00 1.9 12 Norte 19 Norte 0 937.8 0.8 63
2019-03-26 07:00:00 1.8 10 Norte 20 Norte 0 937.3 0.2 61
2019-03-26 06:00:00 2.4 10 Noroeste 17 Noroeste 0 937 -0.2 58
2019-03-26 05:00:00 2.8 9 Noroeste 17 Noroeste 0 937 -0.2 54
2019-03-26 04:00:00 4 8 Noroeste 18 Noroeste 0 937.1 -0.1 50
2019-03-26 03:00:00 5.5 9 Noroeste 19 Noroeste 0 937.2 0.1 46
2019-03-26 02:00:00 5.5 7 Noroeste 21 Noroeste 0 937.2 0.3 38
2019-03-26 01:00:00 8.6 10 Noroeste 19 Noroeste 0 937.2 0.5 30
2019-03-26 00:00:00 11.6 8 Nordeste 22 Nordeste 0 937.1 1 22
2019-03-25 23:00:00 10.9 12 Este -- -- 0 936.9 1 24
2019-03-25 22:00:00 13.2 17 Este 36 Este 0 936.7 1 20
2019-03-25 21:00:00 15.2 13 Nordeste 26 Norte 0 936.1 0.3 22
2019-03-25 20:00:00 17.5 12 Nordeste 28 Norte 0 935.9 -0.4 19
2019-03-25 19:00:00 19.8 17 Nordeste 26 Nordeste 0 935.7 -1.2 17
2019-03-25 18:00:00 20.7 16 Nordeste 37 Este 0 935.8 -1.8 14
2019-03-25 17:00:00 20.8 14 Este 32 Nordeste 0 936.3 -2.4 14
2019-03-25 16:00:00 20.9 13 Este 35 Nordeste 0 936.9 -2.9 14
2019-03-25 15:00:00 20.5 15 Este 41 Este 0 937.6 -2.9 15
2019-03-25 14:00:00 19.8 15 Este 39 Nordeste 0 938.7 -2.3 18
2019-03-25 13:00:00 18.3 14 Nordeste 25 Norte 0 939.8 -1.3 19
2019-03-25 12:00:00 17.1 9 Nordeste 19 Nordeste 0 940.5 -0.4 23
2019-03-25 11:00:00 14.5 5 Noroeste 16 Noroeste 0 941 0.1 28
2019-03-25 10:00:00 11 6 Noroeste 13 Noroeste 0 941.1 0.2 39
2019-03-25 09:00:00 6.3 6 Oeste 19 Oeste 0 940.9 0.4 52
2019-03-25 08:00:00 1.5 9 Sudoeste 12 Sudoeste 0 940.9 0.3 62
2019-03-25 07:00:00 0.3 7 Noroeste 10 Noroeste 0 940.9 0 58
2019-03-25 06:00:00 2 6 Oeste 18 Oeste 0 940.5 -0.7 56
2019-03-25 05:00:00 3.4 4 Sur 19 Este 0 940.6 -0.7 52
2019-03-25 04:00:00 6.1 10 Este 19 Este 0 940.9 -0.3 48
2019-03-25 03:00:00 6.4 9 Este 18 Este 0 941.2 0.3 44
2019-03-25 02:00:00 6.7 5 Nordeste 10 Nordeste 0 941.3 0.2 44
2019-03-25 01:00:00 7.7 8 Nordeste 22 Nordeste 0 941.2 0.3 42
2019-03-25 00:00:00 9.8 5 Sudeste 30 Este 0 940.9 0.4 38